Time;durP1;ratioP1;P1;durP2;ratioP2;P2;SDS_P1;SDS_P2;PMS_P1;PMS_P2;Temp;Humidity;BMP_temperature;BMP_pressure;BME280_temperature;BME280_humidity;BME280_pressure;Samples;Min_cycle;Max_cycle;Signal;HPM_P1;HPM_P2
2023/04/12 00:01:49;;;;;;;8.90;3.20;;;8.00;99.90;;;;;;5061123;28;20126;-79
2023/04/12 00:04:15;;;;;;;11.13;3.53;;;8.00;99.90;;;;;;5044435;28;20040;-79
2023/04/12 00:06:47;;;;;;;8.52;3.10;;;8.10;99.90;;;;;;5038997;28;20043;-80
2023/04/12 00:09:16;;;;;;;8.88;3.22;;;8.10;99.90;;;;;;5075027;28;20083;-80
2023/04/12 00:11:42;;;;;;;11.00;3.97;;;8.10;99.90;;;;;;5059564;28;20138;-80
2023/04/12 00:14:07;;;;;;;11.52;3.60;;;8.10;99.90;;;;;;5060605;28;20058;-80
2023/04/12 00:16:35;;;;;;;9.73;3.67;;;8.20;99.90;;;;;;5046764;28;20453;-80
2023/04/12 00:19:02;;;;;;;10.63;3.40;;;8.20;99.90;;;;;;5060969;28;20043;-76
2023/04/12 00:24:53;;;;;;;10.77;2.92;;;8.20;99.90;;;;;;5216754;22;20028;-80
2023/04/12 00:27:25;;;;;;;7.35;3.38;;;8.20;99.90;;;;;;4990423;28;20050;-80
2023/04/12 00:29:51;;;;;;;10.38;3.65;;;8.20;99.90;;;;;;4966879;28;20111;-80
2023/04/12 00:32:17;;;;;;;9.40;3.20;;;8.20;99.90;;;;;;4980775;28;20038;-81
2023/04/12 00:34:43;;;;;;;10.27;3.30;;;8.30;99.90;;;;;;4983706;28;20508;-81
2023/04/12 00:37:09;;;;;;;9.20;3.28;;;8.30;99.90;;;;;;4987550;28;20091;-81
2023/04/12 00:39:35;;;;;;;12.27;3.42;;;8.30;99.90;;;;;;5002540;28;20072;-80
2023/04/12 00:42:04;;;;;;;6.82;3.00;;;8.30;99.90;;;;;;4979252;28;20061;-81
2023/04/12 00:44:32;;;;;;;11.45;3.92;;;8.30;99.90;;;;;;4972608;28;20152;-81
2023/04/12 00:46:58;;;;;;;12.88;3.97;;;8.30;99.90;;;;;;5000114;28;20132;-81
2023/04/12 00:49:29;;;;;;;10.30;3.63;;;8.40;99.90;;;;;;4971277;28;20049;-80
2023/04/12 00:52:06;;;;;;;10.13;3.28;;;8.30;99.90;;;;;;4988658;28;20040;-81
2023/04/12 00:54:35;;;;;;;11.00;3.30;;;8.30;99.90;;;;;;5004466;28;20135;-80
2023/04/12 00:57:02;;;;;;;10.40;3.88;;;8.30;99.90;;;;;;5019455;28;20045;-81
2023/04/12 00:59:29;;;;;;;11.10;3.83;;;8.40;99.90;;;;;;4984372;28;20061;-81
2023/04/12 01:01:58;;;;;;;9.13;3.17;;;8.40;99.90;;;;;;4988037;28;20180;-80
2023/04/12 01:04:25;;;;;;;9.60;3.30;;;8.40;99.90;;;;;;4987269;28;20500;-80
2023/04/12 01:07:14;;;;;;;10.48;3.60;;;8.50;99.90;;;;;;4982900;28;20100;-80
2023/04/12 01:09:56;;;;;;;10.90;3.20;;;8.50;99.90;;;;;;5004046;28;20460;-82
2023/04/12 01:12:45;;;;;;;13.43;3.92;;;8.60;99.90;;;;;;4997335;28;20656;-80
2023/04/12 01:15:13;;;;;;;11.05;3.95;;;8.70;99.90;;;;;;4985256;28;20432;-80
2023/04/12 01:17:45;;;;;;;8.70;3.33;;;8.70;99.90;;;;;;4989159;28;20053;-81
2023/04/12 01:20:16;;;;;;;9.75;4.00;;;8.70;99.90;;;;;;5028407;28;20038;-81
2023/04/12 01:23:22;;;;;;;8.10;3.08;;;8.80;99.90;;;;;;5012720;28;20045;-81
2023/04/12 01:26:08;;;;;;;11.55;3.60;;;8.80;99.90;;;;;;5027741;28;20087;-80
2023/04/12 01:28:41;;;;;;;7.63;3.22;;;8.80;99.90;;;;;;5012861;28;20041;-80
2023/04/12 01:31:08;;;;;;;8.43;3.30;;;8.80;99.90;;;;;;5013127;28;20045;-81
2023/04/12 01:33:38;;;;;;;11.32;3.70;;;8.80;99.90;;;;;;4989371;28;20053;-81
2023/04/12 01:36:11;;;;;;;8.55;3.42;;;8.80;99.90;;;;;;5013531;28;20045;-81
2023/04/12 01:38:39;;;;;;;8.23;3.63;;;8.80;99.90;;;;;;4994677;28;20041;-81
2023/04/12 01:41:07;;;;;;;9.88;3.65;;;8.80;99.90;;;;;;5011851;28;20476;-81
2023/04/12 01:43:32;;;;;;;9.52;3.33;;;8.80;99.90;;;;;;4994897;28;20598;-82
2023/04/12 01:45:58;;;;;;;9.32;3.25;;;8.80;99.90;;;;;;5011626;28;20045;-82
2023/04/12 01:48:24;;;;;;;10.73;3.35;;;8.80;99.90;;;;;;4990055;28;20599;-82
2023/04/12 01:50:57;;;;;;;8.10;3.20;;;8.80;99.90;;;;;;4995181;28;20051;-81
2023/04/12 01:53:47;;;;;;;8.60;2.65;;;8.80;99.90;;;;;;5010360;28;20143;-82
2023/04/12 01:56:15;;;;;;;8.13;3.17;;;8.80;99.90;;;;;;5008688;28;20453;-82
2023/04/12 01:58:43;;;;;;;7.03;2.55;;;8.80;99.90;;;;;;5008168;28;20049;-81
2023/04/12 02:01:12;;;;;;;8.75;2.97;;;8.80;99.90;;;;;;4975548;28;20045;-82
2023/04/12 02:03:42;;;;;;;9.00;3.10;;;8.80;99.90;;;;;;5009469;28;20130;-82
2023/04/12 02:06:08;;;;;;;10.07;3.47;;;8.80;99.90;;;;;;5010846;28;21251;-81
2023/04/12 02:08:34;;;;;;;10.73;3.05;;;8.80;99.90;;;;;;4977017;28;20457;-81
2023/04/12 02:11:06;;;;;;;9.30;3.40;;;8.80;99.90;;;;;;5008927;28;20049;-82
2023/04/12 02:13:32;;;;;;;9.18;3.20;;;8.80;99.90;;;;;;4979347;28;20154;-81
2023/04/12 02:15:58;;;;;;;7.68;2.85;;;8.80;99.90;;;;;;4976492;28;20073;-81
2023/04/12 02:18:24;;;;;;;9.93;3.30;;;8.80;99.90;;;;;;4993694;28;20239;-81
2023/04/12 02:20:50;;;;;;;6.88;2.80;;;8.70;99.90;;;;;;4995231;28;20152;-82
2023/04/12 02:23:15;;;;;;;11.55;3.50;;;8.70;99.90;;;;;;4979081;28;20041;-81
2023/04/12 02:25:42;;;;;;;7.88;2.75;;;8.70;99.90;;;;;;4978694;28;20045;-81
2023/04/12 02:28:08;;;;;;;11.27;3.78;;;8.70;99.90;;;;;;4992809;28;20215;-82
2023/04/12 02:30:34;;;;;;;12.32;3.50;;;8.70;99.90;;;;;;4989184;28;20503;-82
2023/04/12 02:33:01;;;;;;;11.00;3.08;;;8.70;99.90;;;;;;4994984;28;20049;-83
2023/04/12 02:35:27;;;;;;;6.78;2.38;;;8.70;99.90;;;;;;4980747;28;20059;-82
2023/04/12 02:37:53;;;;;;;7.70;2.53;;;8.70;99.90;;;;;;4995752;28;20559;-83
2023/04/12 02:40:19;;;;;;;9.07;2.88;;;8.70;99.90;;;;;;5012134;28;20053;-82
2023/04/12 02:42:45;;;;;;;6.63;2.70;;;8.70;99.90;;;;;;4995176;28;20049;-82
2023/04/12 02:45:11;;;;;;;8.70;2.78;;;8.60;99.90;;;;;;5028264;28;20201;-82
2023/04/12 02:47:39;;;;;;;8.05;3.45;;;8.70;99.90;;;;;;4994050;28;20138;-82
2023/04/12 02:50:05;;;;;;;8.40;3.38;;;8.60;99.90;;;;;;5025162;28;20029;-82
2023/04/12 02:52:31;;;;;;;9.00;3.30;;;8.50;99.90;;;;;;4994327;28;20041;-82
2023/04/12 02:54:58;;;;;;;8.25;2.67;;;8.50;99.90;;;;;;4995041;28;20041;-82
2023/04/12 02:57:24;;;;;;;11.27;3.42;;;8.50;99.90;;;;;;4989640;28;20961;-82
2023/04/12 02:59:53;;;;;;;10.65;3.10;;;8.50;99.90;;;;;;5011606;28;20461;-82
2023/04/12 03:02:20;;;;;;;8.13;2.95;;;8.50;99.90;;;;;;4995549;28;20048;-82
2023/04/12 03:04:49;;;;;;;8.75;2.47;;;8.50;99.90;;;;;;5011507;28;20054;-82
2023/04/12 03:07:19;;;;;;;9.23;2.80;;;8.50;99.90;;;;;;4994666;28;20551;-82
2023/04/12 03:09:46;;;;;;;10.60;2.80;;;8.60;99.90;;;;;;4978445;28;20041;-82
2023/04/12 03:12:14;;;;;;;7.70;2.55;;;8.50;99.90;;;;;;4979398;28;20129;-82
2023/04/12 03:14:40;;;;;;;8.75;2.63;;;8.50;99.90;;;;;;5009510;28;20041;-82
2023/04/12 03:17:06;;;;;;;10.13;2.22;;;8.50;99.90;;;;;;4977745;28;20037;-82
2023/04/12 03:19:34;;;;;;;6.32;2.28;;;8.50;99.90;;;;;;5011311;28;20568;-81
2023/04/12 03:22:00;;;;;;;7.80;2.33;;;8.50;99.90;;;;;;4979071;28;20562;-78
2023/04/12 03:24:27;;;;;;;8.40;2.60;;;8.50;99.90;;;;;;5011266;28;20081;-77
2023/04/12 03:26:57;;;;;;;6.22;2.63;;;8.50;99.90;;;;;;4976740;28;20562;-76
2023/04/12 03:29:22;;;;;;;6.88;2.55;;;8.60;99.90;;;;;;4993839;28;20057;-76
2023/04/12 03:31:49;;;;;;;9.23;2.70;;;8.60;99.90;;;;;;5009700;28;20045;-77
2023/04/12 03:34:15;;;;;;;7.93;2.30;;;8.60;99.90;;;;;;5009433;28;20128;-77
2023/04/12 03:36:41;;;;;;;8.43;2.70;;;8.60;99.90;;;;;;4994498;28;20095;-78
2023/04/12 03:39:07;;;;;;;10.15;2.72;;;8.60;99.90;;;;;;4990476;28;20049;-78
2023/04/12 03:41:33;;;;;;;8.43;2.50;;;8.60;99.90;;;;;;4977589;28;20049;-83
2023/04/12 03:43:59;;;;;;;7.43;2.55;;;8.60;99.90;;;;;;4978476;28;20067;-82
2023/04/12 03:46:25;;;;;;;9.38;2.50;;;8.60;99.90;;;;;;4994620;28;20045;-83
2023/04/12 03:48:51;;;;;;;10.77;3.50;;;8.60;99.90;;;;;;4993682;28;20523;-83
2023/04/12 03:51:17;;;;;;;8.25;3.00;;;8.60;99.90;;;;;;5004604;28;20136;-83
2023/04/12 03:53:43;;;;;;;7.53;2.92;;;8.60;99.90;;;;;;4993379;28;20522;-83
2023/04/12 03:56:11;;;;;;;8.50;3.13;;;8.60;99.90;;;;;;4962266;28;20049;-83
2023/04/12 03:58:37;;;;;;;5.93;3.15;;;8.60;99.90;;;;;;4992265;28;20081;-83
2023/04/12 04:01:04;;;;;;;9.88;3.13;;;8.60;99.90;;;;;;4990017;28;21573;-82
2023/04/12 04:03:33;;;;;;;8.80;2.95;;;8.60;99.90;;;;;;4992895;28;20136;-83
2023/04/12 04:06:02;;;;;;;6.97;2.80;;;8.60;99.90;;;;;;4995286;28;20847;-83
2023/04/12 04:08:28;;;;;;;8.10;2.97;;;8.60;99.90;;;;;;4992296;28;20130;-81
2023/04/12 04:10:56;;;;;;;9.32;3.58;;;8.60;99.90;;;;;;4994390;28;20944;-83
2023/04/12 04:13:22;;;;;;;8.90;3.33;;;8.60;99.90;;;;;;4994243;28;20045;-83
2023/04/12 04:16:01;;;;;;;7.93;3.25;;;8.50;99.90;;;;;;4992404;28;20104;-82
2023/04/12 04:18:27;;;;;;;7.90;3.45;;;8.50;99.90;;;;;;4989684;28;20049;-82
2023/04/12 04:20:54;;;;;;;8.32;3.13;;;8.50;99.90;;;;;;4971554;28;20409;-81
2023/04/12 04:23:21;;;;;;;9.70;3.42;;;8.50;99.90;;;;;;4991681;28;20575;-81
2023/04/12 04:25:46;;;;;;;8.75;3.80;;;8.40;99.90;;;;;;4990199;28;20538;-82
2023/04/12 04:28:14;;;;;;;8.43;3.83;;;8.40;99.90;;;;;;4991227;28;20164;-82
2023/04/12 04:30:44;;;;;;;9.80;3.00;;;8.40;99.90;;;;;;4973609;28;20041;-81
2023/04/12 04:33:11;;;;;;;7.97;3.50;;;8.40;99.90;;;;;;4989869;28;20453;-81
2023/04/12 04:35:42;;;;;;;10.10;3.38;;;8.30;99.90;;;;;;5004018;28;20140;-80
2023/04/12 04:38:08;;;;;;;10.77;3.50;;;8.30;99.90;;;;;;4988626;28;20041;-81
2023/04/12 04:40:37;;;;;;;8.77;3.28;;;8.30;99.90;;;;;;5007074;28;20114;-80
2023/04/12 04:43:03;;;;;;;12.80;3.70;;;8.30;99.90;;;;;;5007203;28;20290;-79
2023/04/12 04:45:29;;;;;;;8.30;3.50;;;8.20;99.90;;;;;;4976483;28;20450;-79
2023/04/12 04:47:56;;;;;;;9.20;3.65;;;8.20;99.90;;;;;;5030809;28;20050;-78
2023/04/12 04:50:23;;;;;;;9.95;3.88;;;8.20;99.90;;;;;;5007138;28;20051;-78
2023/04/12 04:52:50;;;;;;;11.18;4.55;;;8.20;99.90;;;;;;5012950;28;20136;-78
2023/04/12 04:55:23;;;;;;;10.23;3.85;;;8.20;99.90;;;;;;4995748;28;20468;-78
2023/04/12 04:57:49;;;;;;;10.52;4.07;;;8.10;99.90;;;;;;4979859;28;20430;-78
2023/04/12 05:00:15;;;;;;;8.75;3.75;;;8.10;99.90;;;;;;5012485;28;20053;-78
2023/04/12 05:02:42;;;;;;;7.88;4.45;;;8.10;99.90;;;;;;4994709;28;21476;-77
2023/04/12 05:05:09;;;;;;;9.98;4.35;;;8.10;99.90;;;;;;4996423;28;20496;-77
2023/04/12 05:07:35;;;;;;;10.75;4.70;;;8.10;99.90;;;;;;5011289;28;20326;-77
2023/04/12 05:10:02;;;;;;;10.43;5.10;;;8.00;99.90;;;;;;4997644;28;20053;-78
2023/04/12 05:12:30;;;;;;;9.45;4.28;;;8.00;99.90;;;;;;5007880;28;20037;-78
2023/04/12 05:14:56;;;;;;;9.20;4.70;;;8.00;99.90;;;;;;4982125;28;21197;-78
2023/04/12 05:17:22;;;;;;;9.93;4.90;;;7.90;99.90;;;;;;5012059;28;20049;-78
2023/04/12 05:19:47;;;;;;;11.82;4.50;;;7.90;99.90;;;;;;5013168;28;20385;-81
2023/04/12 05:22:13;;;;;;;14.88;5.20;;;7.90;99.90;;;;;;4977338;28;20366;-77
2023/04/12 05:24:39;;;;;;;9.75;5.10;;;7.90;99.90;;;;;;5011800;28;20079;-78
2023/04/12 05:27:05;;;;;;;10.77;4.93;;;7.90;99.90;;;;;;4993940;28;20057;-77
2023/04/12 05:29:31;;;;;;;10.50;4.90;;;7.90;99.90;;;;;;4993944;28;20049;-77
2023/04/12 05:31:58;;;;;;;9.38;4.97;;;7.90;99.90;;;;;;4992396;28;20488;-81
2023/04/12 05:34:27;;;;;;;10.20;5.43;;;7.90;99.90;;;;;;5009723;28;20080;-78
2023/04/12 05:36:58;;;;;;;11.25;5.20;;;7.90;99.90;;;;;;5021591;28;20251;-79
2023/04/12 05:39:24;;;;;;;10.15;5.03;;;7.90;99.90;;;;;;5009762;28;20041;-79
2023/04/12 05:41:50;;;;;;;9.48;5.00;;;7.90;99.90;;;;;;4993474;28;20065;-77
2023/04/12 05:44:16;;;;;;;12.07;5.93;;;7.80;99.90;;;;;;4976905;28;21481;-77
2023/04/12 05:46:42;;;;;;;10.85;5.90;;;7.80;99.90;;;;;;5004303;28;20233;-77
2023/04/12 05:49:08;;;;;;;9.02;4.80;;;7.80;99.90;;;;;;5004971;28;20048;-78
2023/04/12 05:51:37;;;;;;;9.02;4.88;;;7.80;99.90;;;;;;5007299;28;20425;-77
2023/04/12 05:54:06;;;;;;;9.77;4.97;;;7.80;99.90;;;;;;4990708;28;20048;-77
2023/04/12 05:56:32;;;;;;;10.20;5.10;;;7.80;99.90;;;;;;4975987;28;20154;-77
2023/04/12 05:59:00;;;;;;;11.77;5.00;;;7.80;99.90;;;;;;5006836;28;20045;-78
2023/04/12 06:01:36;;;;;;;9.13;4.55;;;7.80;99.90;;;;;;5019844;28;20526;-78
2023/04/12 06:04:02;;;;;;;10.60;4.60;;;7.80;99.90;;;;;;5021940;28;20048;-78
2023/04/12 06:06:29;;;;;;;10.20;4.53;;;7.90;99.90;;;;;;4974257;28;20053;-74
2023/04/12 06:08:59;;;;;;;6.35;3.83;;;7.80;99.90;;;;;;5007337;28;21312;-73
2023/04/12 06:11:28;;;;;;;8.68;4.47;;;7.80;99.90;;;;;;4977436;28;20500;-75
2023/04/12 06:13:54;;;;;;;10.00;4.45;;;7.80;99.90;;;;;;4992544;28;20045;-73
2023/04/12 06:16:20;;;;;;;7.38;4.97;;;7.80;99.90;;;;;;4975471;28;20045;-73
2023/04/12 06:18:46;;;;;;;9.60;4.55;;;7.80;99.90;;;;;;4975430;28;20053;-72
2023/04/12 06:21:12;;;;;;;9.35;4.50;;;7.80;99.90;;;;;;4989754;28;20120;-72
2023/04/12 06:23:37;;;;;;;8.90;4.57;;;7.90;99.90;;;;;;5007218;28;20056;-72
2023/04/12 06:26:04;;;;;;;6.90;4.35;;;7.80;99.90;;;;;;4990983;28;20436;-72
2023/04/12 06:28:29;;;;;;;9.18;4.35;;;7.80;99.90;;;;;;4991384;28;20504;-72
2023/04/12 06:30:55;;;;;;;9.70;4.70;;;7.80;99.90;;;;;;4990902;28;20034;-68
2023/04/12 06:33:21;;;;;;;8.68;4.20;;;7.80;99.90;;;;;;5007941;28;20046;-72
2023/04/12 06:35:48;;;;;;;12.18;5.03;;;7.80;99.90;;;;;;4994675;28;20060;-72
2023/04/12 06:38:14;;;;;;;11.00;4.85;;;7.80;99.90;;;;;;5026707;28;20652;-72
2023/04/12 06:40:40;;;;;;;9.43;4.53;;;7.80;99.90;;;;;;5009538;28;20271;-72
2023/04/12 06:43:05;;;;;;;12.07;4.72;;;7.80;99.90;;;;;;5008472;28;20045;-72
2023/04/12 06:45:31;;;;;;;8.07;4.70;;;7.90;99.90;;;;;;5009880;28;20544;-72
2023/04/12 06:47:57;;;;;;;10.48;5.10;;;7.80;99.90;;;;;;5004939;28;20053;-72
2023/04/12 06:50:25;;;;;;;9.13;4.68;;;7.80;99.90;;;;;;5005604;28;20060;-73
2023/04/12 06:52:51;;;;;;;10.50;4.60;;;7.90;99.90;;;;;;4990421;28;20657;-73
2023/04/12 06:55:17;;;;;;;10.15;5.20;;;7.90;99.90;;;;;;4987127;28;20045;-74
2023/04/12 06:57:46;;;;;;;9.60;6.00;;;7.90;99.90;;;;;;4989138;28;20046;-73
2023/04/12 07:00:12;;;;;;;8.73;4.97;;;7.90;99.90;;;;;;5023737;28;20049;-73
2023/04/12 07:02:38;;;;;;;9.70;5.50;;;7.90;99.90;;;;;;5022853;28;20049;-73
2023/04/12 07:05:05;;;;;;;8.45;4.72;;;7.90;99.90;;;;;;5009865;28;20071;-73
2023/04/12 07:07:31;;;;;;;7.43;5.45;;;7.90;99.90;;;;;;5024797;28;20053;-73
2023/04/12 07:09:58;;;;;;;8.80;5.38;;;7.90;99.90;;;;;;4977422;28;20049;-73
2023/04/12 07:12:26;;;;;;;9.80;5.70;;;7.90;99.90;;;;;;5007957;28;20408;-73
2023/04/12 07:14:52;;;;;;;7.60;5.40;;;7.90;99.90;;;;;;5010302;28;20043;-74
2023/04/12 07:17:20;;;;;;;8.85;5.10;;;7.90;99.90;;;;;;5015077;28;20045;-74
2023/04/12 07:19:46;;;;;;;8.77;5.63;;;7.90;99.90;;;;;;4985794;28;20049;-71
2023/04/12 07:22:12;;;;;;;8.35;5.38;;;7.90;99.90;;;;;;5020906;28;20045;-71
2023/04/12 07:24:38;;;;;;;10.68;6.40;;;7.90;99.90;;;;;;4989674;28;20056;-70
2023/04/12 07:27:03;;;;;;;8.38;6.07;;;7.90;99.90;;;;;;4986013;28;20049;-70
2023/04/12 07:29:29;;;;;;;8.70;6.10;;;7.90;99.90;;;;;;4990917;28;20056;-70
2023/04/12 07:31:55;;;;;;;10.90;6.18;;;7.90;99.90;;;;;;5018275;28;20221;-73
2023/04/12 07:34:21;;;;;;;8.68;6.75;;;7.90;99.90;;;;;;5006381;28;20053;-73
2023/04/12 07:36:46;;;;;;;7.30;6.43;;;7.90;99.90;;;;;;5021572;28;20118;-71
2023/04/12 07:39:13;;;;;;;8.48;6.55;;;7.90;99.90;;;;;;4989177;28;20051;-70
2023/04/12 07:41:41;;;;;;;9.25;7.18;;;7.90;99.90;;;;;;5005652;28;20077;-70
2023/04/12 07:44:06;;;;;;;8.52;6.70;;;7.90;99.90;;;;;;4988343;28;20049;-71
2023/04/12 07:46:32;;;;;;;12.65;7.43;;;8.00;99.90;;;;;;5000366;28;20536;-71
2023/04/12 07:48:58;;;;;;;9.05;7.20;;;8.00;99.90;;;;;;4983449;28;20065;-71
2023/04/12 07:51:24;;;;;;;9.10;7.43;;;7.90;99.90;;;;;;4995996;28;20567;-70
2023/04/12 07:53:50;;;;;;;10.25;7.25;;;8.00;99.90;;;;;;5020782;28;20630;-70
2023/04/12 07:56:16;;;;;;;8.65;6.75;;;8.00;99.90;;;;;;4974655;28;20124;-70
2023/04/12 07:58:42;;;;;;;9.27;7.13;;;8.00;99.90;;;;;;5018895;28;20132;-70
2023/04/12 08:01:10;;;;;;;8.98;6.95;;;8.00;99.90;;;;;;5006811;28;20412;-70
2023/04/12 08:03:36;;;;;;;10.88;7.93;;;8.00;99.90;;;;;;5005171;28;20048;-70
2023/04/12 08:06:02;;;;;;;8.70;7.47;;;8.00;99.90;;;;;;4987561;28;20045;-73
2023/04/12 08:08:28;;;;;;;8.38;7.13;;;8.00;99.90;;;;;;4989469;28;20660;-74
2023/04/12 08:10:54;;;;;;;8.68;7.40;;;8.10;99.90;;;;;;4973761;28;20415;-73
2023/04/12 08:13:20;;;;;;;9.65;8.55;;;8.10;99.90;;;;;;4989811;28;20029;-74
2023/04/12 08:15:46;;;;;;;10.32;8.63;;;8.10;99.90;;;;;;5021035;28;20033;-74
2023/04/12 08:18:12;;;;;;;10.35;8.93;;;8.10;99.90;;;;;;5006135;28;20443;-74
2023/04/12 08:20:39;;;;;;;9.90;8.82;;;8.20;99.90;;;;;;5009186;28;20081;-74
2023/04/12 08:23:06;;;;;;;10.43;9.30;;;8.20;99.90;;;;;;4989265;28;20102;-74
2023/04/12 08:25:32;;;;;;;9.88;8.75;;;8.20;99.90;;;;;;5017064;28;20056;-73
2023/04/12 08:27:58;;;;;;;9.80;8.60;;;8.20;99.90;;;;;;4992229;28;20152;-73
2023/04/12 08:30:25;;;;;;;9.45;8.32;;;8.20;99.90;;;;;;5016118;28;20128;-75
2023/04/12 08:32:54;;;;;;;10.98;9.88;;;8.20;99.90;;;;;;5005622;28;20507;-74
2023/04/12 08:35:21;;;;;;;13.65;11.10;;;8.30;99.90;;;;;;5021328;28;20037;-74
2023/04/12 08:37:48;;;;;;;10.85;9.85;;;8.20;99.90;;;;;;5017044;28;20049;-74
2023/04/12 08:40:14;;;;;;;12.35;10.68;;;8.30;99.90;;;;;;5021481;28;20052;-76
2023/04/12 08:42:40;;;;;;;12.80;11.50;;;8.30;99.90;;;;;;5021165;28;20053;-76
2023/04/12 08:45:10;;;;;;;11.32;10.20;;;8.30;99.90;;;;;;5004860;28;20038;-74
2023/04/12 08:47:37;;;;;;;;;;;8.30;99.90;;;;;;5022280;28;20049;-75
2023/04/12 08:50:08;;;;;;;11.70;10.70;;;8.40;99.90;;;;;;5017907;28;19921;-74
2023/04/12 08:52:34;;;;;;;;;;;8.40;99.90;;;;;;5022330;28;20050;-74
2023/04/12 08:55:07;;;;;;;12.85;11.65;;;8.40;99.90;;;;;;5020609;28;19978;-74
2023/04/12 08:57:34;;;;;;;15.02;13.52;;;8.40;99.90;;;;;;5020396;28;20118;-75
2023/04/12 09:00:02;;;;;;;13.93;12.57;;;8.40;99.90;;;;;;5005533;28;20041;-74
2023/04/12 09:02:28;;;;;;;13.38;12.25;;;8.50;99.90;;;;;;5005780;28;20544;-74
2023/04/12 09:04:54;;;;;;;16.77;15.15;;;8.50;99.90;;;;;;4994589;28;20050;-74
2023/04/12 09:07:29;;;;;;;17.48;15.88;;;8.50;99.90;;;;;;5021921;28;20057;-74
2023/04/12 09:09:56;;;;;;;16.38;14.88;;;8.60;99.90;;;;;;5035100;28;20053;-74
2023/04/12 09:12:23;;;;;;;18.33;16.73;;;8.60;99.90;;;;;;5020524;28;20561;-75
2023/04/12 09:15:05;;;;;;;17.90;16.40;;;8.60;99.90;;;;;;4989139;28;20284;-75
2023/04/12 09:17:32;;;;;;;17.70;16.13;;;8.60;99.90;;;;;;5015710;28;20111;-75
2023/04/12 09:19:58;;;;;;;17.15;15.48;;;8.60;99.90;;;;;;4982471;28;20417;-75
2023/04/12 09:22:34;;;;;;;16.48;14.98;;;8.60;99.90;;;;;;4984465;28;20048;-74
2023/04/12 09:25:00;;;;;;;16.85;15.35;;;8.70;99.90;;;;;;5003972;28;20106;-75
2023/04/12 09:27:27;;;;;;;18.80;17.30;;;8.60;99.90;;;;;;5003861;28;20057;-75
2023/04/12 09:30:07;;;;;;;18.55;16.98;;;8.70;99.90;;;;;;5011564;28;20087;-75
2023/04/12 09:32:32;;;;;;;17.83;16.33;;;8.80;99.90;;;;;;4979458;28;20053;-71
2023/04/12 09:35:01;;;;;;;19.48;17.77;;;8.90;99.90;;;;;;4989913;28;20038;-71
2023/04/12 09:37:27;;;;;;;18.55;16.95;;;9.00;99.90;;;;;;5020875;28;20648;-71
2023/04/12 09:40:03;;;;;;;17.33;15.82;;;9.10;99.90;;;;;;5024908;28;20037;-71
2023/04/12 09:42:29;;;;;;;17.60;16.10;;;9.20;99.90;;;;;;5006914;28;20053;-71
2023/04/12 09:44:56;;;;;;;17.20;15.68;;;9.30;99.90;;;;;;5024817;28;20044;-71
2023/04/12 09:47:36;;;;;;;15.60;14.30;;;9.40;99.90;;;;;;5023597;28;20072;-71
2023/04/12 09:50:04;;;;;;;18.20;16.63;;;9.40;99.90;;;;;;5017094;28;20041;-71
2023/04/12 09:52:36;;;;;;;16.05;14.77;;;9.60;99.90;;;;;;5022861;28;20056;-71
2023/04/12 09:55:08;;;;;;;14.73;13.52;;;9.60;99.90;;;;;;5018064;28;20544;-75
2023/04/12 09:57:37;;;;;;;13.13;12.07;;;9.70;99.90;;;;;;5007935;28;20172;-75
2023/04/12 10:00:07;;;;;;;12.57;11.37;;;9.70;99.90;;;;;;5009401;28;20037;-74
2023/04/12 10:02:33;;;;;;;11.43;10.32;;;9.90;99.90;;;;;;5023044;28;20233;-75
2023/04/12 10:04:59;;;;;;;11.27;10.20;;;9.90;99.90;;;;;;4987359;28;20091;-75
2023/04/12 10:07:26;;;;;;;12.88;11.57;;;9.90;99.90;;;;;;5024635;28;20041;-75
2023/04/12 10:09:52;;;;;;;10.40;8.95;;;10.00;99.90;;;;;;4977363;28;20045;-75
2023/04/12 10:12:18;;;;;;;10.68;9.30;;;10.00;99.90;;;;;;5009059;28;20041;-75
2023/04/12 10:14:46;;;;;;;9.98;9.00;;;10.10;99.90;;;;;;5008120;28;20037;-75
2023/04/12 10:17:12;;;;;;;12.27;8.70;;;10.10;99.90;;;;;;5003182;28;20042;-75
2023/04/12 10:19:38;;;;;;;9.40;8.40;;;10.20;99.90;;;;;;4992336;28;20103;-74
2023/04/12 10:22:04;;;;;;;10.85;9.20;;;10.30;99.90;;;;;;5008989;28;20053;-71
2023/04/12 10:24:31;;;;;;;12.93;9.23;;;10.40;99.90;;;;;;5019744;28;20049;-71
2023/04/12 10:27:02;;;;;;;10.23;7.80;;;10.50;99.90;;;;;;5007001;28;20057;-71
2023/04/12 10:29:37;;;;;;;9.93;7.78;;;10.60;99.90;;;;;;4990002;28;20073;-70
2023/04/12 10:32:21;;;;;;;11.52;7.97;;;10.60;99.90;;;;;;5019524;28;20061;-70
2023/04/12 10:34:57;;;;;;;15.30;8.32;;;10.60;99.90;;;;;;5001730;28;20111;-70
2023/04/12 10:38:01;;;;;;;12.38;7.88;;;10.70;99.90;;;;;;4997270;28;20050;-70
2023/04/12 10:40:37;;;;;;;10.55;8.02;;;10.70;99.90;;;;;;4997601;28;20538;-70
2023/04/12 10:43:21;;;;;;;10.57;6.45;;;10.70;99.90;;;;;;5006364;28;20123;-73
2023/04/12 10:45:48;;;;;;;12.00;7.20;;;10.90;99.90;;;;;;5002962;28;20053;-73
2023/04/12 10:48:52;;;;;;;10.80;8.13;;;11.00;99.90;;;;;;5007773;28;20660;-73
2023/04/12 10:51:26;;;;;;;11.95;6.78;;;11.20;99.90;;;;;;4964897;28;20049;-73
2023/04/12 10:53:52;;;;;;;11.98;6.43;;;11.30;99.90;;;;;;5023267;28;20064;-71
2023/04/12 10:56:30;;;;;;;10.80;5.13;;;11.60;99.90;;;;;;5006636;28;20492;-71
2023/04/12 10:58:58;;;;;;;11.07;4.25;;;11.70;99.90;;;;;;5020012;28;20060;-70
2023/04/12 11:01:25;;;;;;;11.73;4.30;;;11.70;99.90;;;;;;5023577;28;20707;-68
2023/04/12 11:04:14;;;;;;;9.45;4.25;;;11.80;99.90;;;;;;5006457;28;20516;-71
2023/04/12 11:06:52;;;;;;;11.32;4.30;;;12.00;99.90;;;;;;5008083;28;20041;-71
2023/04/12 11:09:17;;;;;;;13.27;5.07;;;12.20;99.90;;;;;;5020490;28;20499;-71
2023/04/12 11:11:44;;;;;;;9.95;4.43;;;12.30;99.90;;;;;;5023926;28;20047;-71
2023/04/12 11:14:10;;;;;;;12.27;4.30;;;12.40;99.90;;;;;;5007709;28;20030;-71
2023/04/12 11:17:17;;;;;;;13.40;4.78;;;12.30;99.90;;;;;;5019901;28;20073;-71
2023/04/12 11:19:45;;;;;;;11.07;3.33;;;12.40;99.90;;;;;;5004086;28;20133;-71
2023/04/12 11:22:13;;;;;;;9.95;4.32;;;12.60;99.90;;;;;;5024293;28;20053;-71
2023/04/12 11:24:42;;;;;;;11.23;3.50;;;12.80;99.90;;;;;;5005627;28;20037;-72
2023/04/12 11:27:08;;;;;;;11.65;4.00;;;13.00;99.90;;;;;;5003579;28;20053;-71
2023/04/12 11:29:34;;;;;;;10.75;3.72;;;13.00;99.90;;;;;;5021976;28;20411;-71
2023/04/12 11:32:04;;;;;;;12.60;3.53;;;13.10;99.90;;;;;;5004503;28;20045;-71
2023/04/12 11:34:34;;;;;;;;;;;13.20;99.90;;;;;;5021986;28;20075;-72
2023/04/12 11:37:04;;;;;;;16.10;3.30;;;13.50;99.90;;;;;;5019353;28;20028;-71
2023/04/12 11:39:31;;;;;;;13.02;3.83;;;13.70;99.90;;;;;;5004864;28;20127;-71
2023/04/12 11:41:57;;;;;;;12.73;3.95;;;13.90;99.90;;;;;;5004122;28;20045;-71
2023/04/12 11:44:23;;;;;;;10.50;3.00;;;13.90;99.90;;;;;;4988302;28;20507;-71
2023/04/12 11:46:50;;;;;;;12.85;3.30;;;13.60;99.90;;;;;;5003850;28;20033;-71
2023/04/12 11:49:20;;;;;;;12.25;2.80;;;13.40;99.90;;;;;;5020195;28;20487;-72
2023/04/12 11:51:46;;;;;;;9.32;2.65;;;13.30;99.90;;;;;;5022851;28;20034;-72
2023/04/12 11:54:12;;;;;;;12.10;3.00;;;13.10;99.90;;;;;;5018749;28;20029;-71
2023/04/12 11:56:39;;;;;;;13.63;3.10;;;13.00;99.90;;;;;;5014534;28;20064;-71
2023/04/12 11:59:05;;;;;;;15.73;3.00;;;12.90;99.90;;;;;;5019775;28;20083;-72
2023/04/12 12:01:34;;;;;;;16.02;3.55;;;12.80;99.90;;;;;;5018406;28;20532;-72
2023/04/12 12:04:00;;;;;;;10.95;2.78;;;12.80;99.90;;;;;;5017245;28;20050;-72
2023/04/12 12:06:27;;;;;;;12.18;3.05;;;12.90;99.90;;;;;;4990840;28;20041;-71
2023/04/12 12:08:56;;;;;;;13.10;2.95;;;13.00;99.90;;;;;;5020989;28;20060;-73
2023/04/12 12:11:23;;;;;;;9.90;2.35;;;13.10;99.90;;;;;;4999816;28;20118;-71
2023/04/12 12:13:50;;;;;;;11.70;2.88;;;13.10;99.90;;;;;;4973609;28;20548;-71
2023/04/12 12:16:18;;;;;;;12.93;2.80;;;13.10;99.90;;;;;;4985643;28;20076;-71
2023/04/12 12:18:48;;;;;;;13.77;3.22;;;13.10;99.90;;;;;;5003597;28;20048;-72
2023/04/12 12:21:14;;;;;;;10.90;2.83;;;13.10;99.90;;;;;;5006010;28;20697;-72
2023/04/12 12:23:44;;;;;;;13.38;2.63;;;13.10;99.90;;;;;;5021504;28;20091;-72
2023/04/12 12:26:22;;;;;;;10.68;2.67;;;13.10;99.90;;;;;;5022511;28;20053;-71
2023/04/12 12:28:53;;;;;;;12.65;3.10;;;13.20;99.50;;;;;;5021463;28;20053;-72
2023/04/12 12:31:22;;;;;;;10.25;2.58;;;13.20;97.80;;;;;;5019883;28;20034;-72
2023/04/12 12:33:48;;;;;;;10.98;2.65;;;13.20;97.00;;;;;;5020274;28;20060;-72
2023/04/12 12:36:21;;;;;;;11.20;2.72;;;13.20;96.00;;;;;;5003481;28;20145;-72
2023/04/12 12:38:48;;;;;;;11.73;2.40;;;13.30;97.10;;;;;;5003696;28;20081;-72
2023/04/12 12:41:18;;;;;;;8.40;2.03;;;13.40;95.50;;;;;;5003344;28;20152;-72
2023/04/12 12:43:49;;;;;;;9.93;1.90;;;13.40;94.50;;;;;;5013387;28;20111;-72
2023/04/12 12:46:19;;;;;;;10.25;2.05;;;13.40;92.30;;;;;;5017897;28;20458;-72
2023/04/12 12:48:46;;;;;;;9.87;2.03;;;13.40;91.40;;;;;;5022716;28;20051;-73
2023/04/12 12:51:13;;;;;;;7.47;1.83;;;13.50;91.50;;;;;;5020546;28;20289;-72
2023/04/12 12:53:40;;;;;;;8.18;2.28;;;13.50;90.30;;;;;;5006131;28;20103;-75
2023/04/12 12:56:10;;;;;;;10.73;2.50;;;13.60;90.30;;;;;;5020017;28;20054;-72
2023/04/12 12:58:36;;;;;;;10.23;2.60;;;13.50;91.20;;;;;;5021998;28;20125;-72